Time;durP1;ratioP1;P1;durP2;ratioP2;P2;SDS_P1;SDS_P2;PMS_P1;PMS_P2;Temp;Humidity;BMP_temperature;BMP_pressure;BME280_temperature;BME280_humidity;BME280_pressure;Samples;Min_cycle;Max_cycle;Signal;HPM_P1;HPM_P2
2021/10/01 00:01:27;;;;;;;55.50;31.10;;;;;;;;;;4914458;29;20092;-63
2021/10/01 00:03:54;;;;;;;56.78;30.85;;;;;;;;;;4914440;29;20123;-62
2021/10/01 00:06:20;;;;;;;56.17;31.65;;;;;;;;;;4914535;29;20030;-62
2021/10/01 00:08:46;;;;;;;59.67;32.88;;;;;;;;;;4914750;29;20142;-62
2021/10/01 00:11:12;;;;;;;58.47;31.73;;;;;;;;;;4917869;29;20028;-62
2021/10/01 00:13:38;;;;;;;56.03;30.50;;;;;;;;;;4918022;29;20064;-62
2021/10/01 00:16:05;;;;;;;59.53;31.83;;;;;;;;;;4917951;29;20040;-66
2021/10/01 00:18:31;;;;;;;56.63;30.88;;;;;;;;;;4918157;29;20365;-63
2021/10/01 00:20:58;;;;;;;55.83;32.25;;;;;;;;;;4917874;29;20035;-64
2021/10/01 00:23:24;;;;;;;58.88;31.25;;;;;;;;;;4917545;29;20075;-62
2021/10/01 00:25:50;;;;;;;56.45;32.15;;;;;;;;;;4917845;29;20021;-64
2021/10/01 00:28:16;;;;;;;58.72;31.60;;;;;;;;;;4917917;29;20071;-64
2021/10/01 00:30:42;;;;;;;56.20;31.73;;;;;;;;;;4917905;29;20400;-63
2021/10/01 00:33:08;;;;;;;56.70;30.45;;;;;;;;;;4900534;29;20480;-64
2021/10/01 00:35:34;;;;;;;59.50;31.27;;;;;;;;;;4917616;29;20039;-62
2021/10/01 00:38:00;;;;;;;53.08;31.83;;;;;;;;;;4917427;29;20103;-62
2021/10/01 00:40:27;;;;;;;57.90;31.95;;;;;;;;;;4917545;29;20495;-64
2021/10/01 00:42:53;;;;;;;58.22;32.47;;;;;;;;;;4917512;29;20032;-69
2021/10/01 00:45:19;;;;;;;53.67;31.65;;;;;;;;;;4917184;29;20036;-64
2021/10/01 00:47:45;;;;;;;55.03;31.75;;;;;;;;;;4917514;29;20057;-63
2021/10/01 00:50:12;;;;;;;55.85;31.48;;;;;;;;;;4917483;29;20020;-63
2021/10/01 00:52:38;;;;;;;57.70;31.67;;;;;;;;;;4917166;29;20376;-63
2021/10/01 00:55:05;;;;;;;60.60;32.97;;;;;;;;;;4917492;29;20036;-64
2021/10/01 00:57:31;;;;;;;60.47;32.95;;;;;;;;;;4917139;29;20024;-64
2021/10/01 00:59:57;;;;;;;60.33;32.67;;;;;;;;;;4900126;29;20048;-63
2021/10/01 01:02:23;;;;;;;60.53;33.13;;;;;;;;;;4917122;29;20056;-64
2021/10/01 01:04:50;;;;;;;54.08;31.33;;;;;;;;;;4917090;29;20047;-64
2021/10/01 01:07:22;;;;;;;58.65;32.17;;;;;;;;;;4917117;29;20556;-62
2021/10/01 01:09:55;;;;;;;55.30;31.15;;;;;;;;;;4916867;29;20047;-63
2021/10/01 01:12:31;;;;;;;55.13;31.25;;;;;;;;;;4916941;29;20036;-62
2021/10/01 01:15:00;;;;;;;58.25;30.98;;;;;;;;;;4916911;29;20068;-62
2021/10/01 01:17:28;;;;;;;61.33;33.15;;;;;;;;;;4916783;29;20070;-62
2021/10/01 01:20:03;;;;;;;65.03;33.63;;;;;;;;;;4916950;29;20043;-65
2021/10/01 01:22:32;;;;;;;55.22;32.47;;;;;;;;;;4916256;29;20384;-63
2021/10/01 01:24:58;;;;;;;61.28;31.60;;;;;;;;;;4916719;29;20040;-63
2021/10/01 01:27:43;;;;;;;63.03;32.33;;;;;;;;;;4916786;29;20511;-62
2021/10/01 01:30:17;;;;;;;62.42;33.92;;;;;;;;;;4916604;29;20024;-68
2021/10/01 01:32:45;;;;;;;67.38;33.97;;;;;;;;;;4916658;29;20475;-69
2021/10/01 01:35:19;;;;;;;64.70;32.83;;;;;;;;;;4916405;29;20032;-65
2021/10/01 01:37:47;;;;;;;61.45;33.63;;;;;;;;;;4916171;29;20043;-68
2021/10/01 01:40:15;;;;;;;64.18;33.38;;;;;;;;;;4916251;29;20048;-64
2021/10/01 01:42:42;;;;;;;61.38;33.70;;;;;;;;;;4916439;29;20488;-68
2021/10/01 01:45:08;;;;;;;64.75;34.97;;;;;;;;;;4916193;29;20181;-63
2021/10/01 01:47:35;;;;;;;64.00;34.30;;;;;;;;;;4916402;29;20111;-63
2021/10/01 01:50:02;;;;;;;72.30;35.90;;;;;;;;;;4916342;29;20395;-67
2021/10/01 01:52:28;;;;;;;70.45;36.03;;;;;;;;;;4916170;29;20488;-69
2021/10/01 01:54:55;;;;;;;68.78;35.38;;;;;;;;;;4916278;29;20032;-64
2021/10/01 01:57:23;;;;;;;68.03;36.72;;;;;;;;;;4916449;29;20511;-69
2021/10/01 01:59:49;;;;;;;74.55;36.60;;;;;;;;;;4916132;29;20385;-68
2021/10/01 02:02:16;;;;;;;71.10;37.55;;;;;;;;;;4917477;29;20040;-64
2021/10/01 02:04:44;;;;;;;70.43;36.00;;;;;;;;;;4917564;29;20119;-69
2021/10/01 02:07:11;;;;;;;73.22;37.78;;;;;;;;;;4916345;29;20129;-69
2021/10/01 02:09:37;;;;;;;69.60;36.60;;;;;;;;;;4915793;29;20032;-69
2021/10/01 02:12:04;;;;;;;70.72;37.47;;;;;;;;;;4916025;29;20028;-65
2021/10/01 02:14:32;;;;;;;72.82;37.20;;;;;;;;;;4916375;29;20373;-66
2021/10/01 02:16:59;;;;;;;67.90;36.75;;;;;;;;;;4915709;29;20492;-63
2021/10/01 02:19:27;;;;;;;74.38;37.58;;;;;;;;;;4915969;29;20488;-68
2021/10/01 02:21:54;;;;;;;73.78;37.17;;;;;;;;;;4915720;29;20024;-69
2021/10/01 02:24:20;;;;;;;70.35;36.67;;;;;;;;;;4915742;29;20548;-64
2021/10/01 02:26:53;;;;;;;61.17;33.03;;;;;;;;;;4915648;29;20055;-68
2021/10/01 02:29:25;;;;;;;66.32;32.70;;;;;;;;;;4915671;29;20047;-68
2021/10/01 02:31:51;;;;;;;63.47;32.50;;;;;;;;;;4915755;29;20028;-68
2021/10/01 02:34:21;;;;;;;64.35;33.10;;;;;;;;;;4914824;29;20047;-64
2021/10/01 02:36:47;;;;;;;61.30;32.50;;;;;;;;;;4915491;29;20028;-64
2021/10/01 02:39:13;;;;;;;70.90;34.85;;;;;;;;;;4915300;29;20119;-63
2021/10/01 02:41:39;;;;;;;69.43;34.25;;;;;;;;;;4915453;29;20087;-68
2021/10/01 02:44:05;;;;;;;61.40;33.10;;;;;;;;;;4915266;29;20036;-64
2021/10/01 02:46:31;;;;;;;64.40;34.25;;;;;;;;;;4898160;29;20576;-63
2021/10/01 02:48:57;;;;;;;66.03;33.90;;;;;;;;;;4915435;29;20096;-64
2021/10/01 02:51:24;;;;;;;67.93;34.58;;;;;;;;;;4915338;29;20400;-63
2021/10/01 02:53:55;;;;;;;68.75;35.75;;;;;;;;;;4915068;29;20028;-64
2021/10/01 02:56:24;;;;;;;70.55;34.42;;;;;;;;;;4915310;29;20107;-66
2021/10/01 02:58:55;;;;;;;64.82;33.90;;;;;;;;;;4915344;29;20031;-64
2021/10/01 03:01:22;;;;;;;70.30;36.63;;;;;;;;;;4915096;29;20051;-62
2021/10/01 03:03:49;;;;;;;69.20;36.00;;;;;;;;;;4915053;29;20036;-62
2021/10/01 03:06:18;;;;;;;70.18;35.92;;;;;;;;;;4915047;29;20176;-66
2021/10/01 03:08:45;;;;;;;72.60;36.00;;;;;;;;;;4915232;29;20039;-66
2021/10/01 03:11:11;;;;;;;72.40;35.03;;;;;;;;;;4915161;29;20380;-63
2021/10/01 03:13:42;;;;;;;72.85;37.15;;;;;;;;;;4915055;29;20064;-64
2021/10/01 03:16:09;;;;;;;71.18;36.75;;;;;;;;;;4914989;29;20028;-63
2021/10/01 03:18:35;;;;;;;69.80;37.05;;;;;;;;;;4915074;29;20032;-63
2021/10/01 03:21:02;;;;;;;71.22;35.83;;;;;;;;;;4914931;29;20104;-63
2021/10/01 03:23:29;;;;;;;68.03;34.97;;;;;;;;;;4914839;29;20047;-64
2021/10/01 03:25:55;;;;;;;69.13;34.92;;;;;;;;;;4914849;29;20092;-64
2021/10/01 03:28:22;;;;;;;65.68;36.33;;;;;;;;;;4914933;29;20035;-62
2021/10/01 03:30:48;;;;;;;67.93;36.00;;;;;;;;;;4914977;29;20152;-63
2021/10/01 03:33:15;;;;;;;69.47;35.80;;;;;;;;;;4914888;29;20037;-63
2021/10/01 03:35:43;;;;;;;71.30;36.65;;;;;;;;;;4914555;29;20392;-63
2021/10/01 03:38:13;;;;;;;67.97;35.67;;;;;;;;;;4914341;29;20044;-63
2021/10/01 03:40:43;;;;;;;69.00;35.22;;;;;;;;;;4914494;29;20032;-63
2021/10/01 03:43:10;;;;;;;75.45;36.70;;;;;;;;;;4914847;29;20028;-61
2021/10/01 03:45:36;;;;;;;70.63;36.22;;;;;;;;;;4917210;29;20135;-62
2021/10/01 03:48:05;;;;;;;72.40;36.13;;;;;;;;;;4918235;29;20035;-62
2021/10/01 03:50:32;;;;;;;75.80;36.10;;;;;;;;;;4918539;29;20058;-62
2021/10/01 03:52:58;;;;;;;70.05;33.67;;;;;;;;;;4918206;29;20036;-62
2021/10/01 03:55:24;;;;;;;63.50;31.77;;;;;;;;;;4917996;29;20400;-62
2021/10/01 03:57:50;;;;;;;62.85;32.10;;;;;;;;;;4918234;29;20028;-63
2021/10/01 04:00:17;;;;;;;68.97;34.53;;;;;;;;;;4918076;29;20043;-62
2021/10/01 04:02:43;;;;;;;66.25;32.83;;;;;;;;;;4918198;29;20107;-61
2021/10/01 04:05:10;;;;;;;63.35;34.00;;;;;;;;;;4917949;29;20028;-64
2021/10/01 04:07:36;;;;;;;62.28;32.20;;;;;;;;;;4918169;29;20437;-62
2021/10/01 04:10:02;;;;;;;68.88;35.13;;;;;;;;;;4917873;29;20056;-63
2021/10/01 04:12:28;;;;;;;72.22;37.47;;;;;;;;;;4917949;29;20036;-62
2021/10/01 04:14:54;;;;;;;69.45;36.10;;;;;;;;;;4918025;29;20024;-62
2021/10/01 04:17:20;;;;;;;68.65;34.97;;;;;;;;;;4917917;29;20390;-62
2021/10/01 04:19:46;;;;;;;76.30;36.33;;;;;;;;;;4918009;29;20103;-63
2021/10/01 04:22:12;;;;;;;70.10;34.75;;;;;;;;;;4901105;29;20038;-67
2021/10/01 04:24:38;;;;;;;67.03;34.65;;;;;;;;;;4917698;29;20123;-69
2021/10/01 04:27:04;;;;;;;66.10;33.38;;;;;;;;;;4917589;29;20066;-64
2021/10/01 04:29:31;;;;;;;62.28;31.42;;;;;;;;;;4917847;29;20032;-62
2021/10/01 04:31:57;;;;;;;65.10;32.78;;;;;;;;;;4917619;29;20056;-63
2021/10/01 04:34:23;;;;;;;64.70;32.83;;;;;;;;;;4917459;29;20384;-63
2021/10/01 04:36:49;;;;;;;69.32;33.30;;;;;;;;;;4917565;29;20108;-64
2021/10/01 04:39:15;;;;;;;61.63;32.72;;;;;;;;;;4917265;29;20052;-64
2021/10/01 04:41:42;;;;;;;66.90;32.65;;;;;;;;;;4917297;29;20081;-66
2021/10/01 04:44:09;;;;;;;73.80;34.70;;;;;;;;;;4917370;29;20062;-65
2021/10/01 04:46:35;;;;;;;65.65;33.90;;;;;;;;;;4917131;29;20035;-62
2021/10/01 04:49:01;;;;;;;59.38;28.80;;;;;;;;;;4917611;29;20024;-66
2021/10/01 04:51:27;;;;;;;54.13;28.33;;;;;;;;;;4917157;29;20034;-62
2021/10/01 04:53:53;;;;;;;56.65;29.13;;;;;;;;;;4917368;29;20404;-68
2021/10/01 04:56:19;;;;;;;55.50;28.92;;;;;;;;;;4916119;29;20036;-64
2021/10/01 04:58:45;;;;;;;56.10;28.35;;;;;;;;;;4917018;29;20024;-66
2021/10/01 05:01:11;;;;;;;51.70;28.00;;;;;;;;;;4917117;29;20025;-69
2021/10/01 05:03:38;;;;;;;52.63;26.05;;;;;;;;;;4916826;29;20036;-67
2021/10/01 05:06:04;;;;;;;50.78;26.02;;;;;;;;;;4916783;29;20438;-68
2021/10/01 05:08:30;;;;;;;53.60;25.95;;;;;;;;;;4917385;29;20418;-62
2021/10/01 05:10:56;;;;;;;55.28;26.65;;;;;;;;;;4916817;29;20024;-63
2021/10/01 05:13:22;;;;;;;57.10;30.33;;;;;;;;;;4917182;29;20038;-64
2021/10/01 05:15:50;;;;;;;57.10;30.88;;;;;;;;;;4916772;29;20078;-63
2021/10/01 05:18:17;;;;;;;63.95;30.80;;;;;;;;;;4899935;29;20445;-63
2021/10/01 05:20:43;;;;;;;62.88;31.70;;;;;;;;;;4916620;29;20063;-67
2021/10/01 05:23:09;;;;;;;61.67;30.55;;;;;;;;;;4916567;29;20107;-63
2021/10/01 05:25:35;;;;;;;64.90;30.42;;;;;;;;;;4916286;29;20038;-62
2021/10/01 05:28:01;;;;;;;58.80;29.55;;;;;;;;;;4916504;29;20055;-62
2021/10/01 05:30:27;;;;;;;58.42;28.33;;;;;;;;;;4916339;29;20024;-69
2021/10/01 05:32:53;;;;;;;57.83;29.98;;;;;;;;;;4916438;29;20028;-67
2021/10/01 05:35:20;;;;;;;60.55;30.00;;;;;;;;;;4916336;29;20063;-67
2021/10/01 05:37:46;;;;;;;60.95;28.83;;;;;;;;;;4916032;29;20372;-62
2021/10/01 05:40:12;;;;;;;58.60;29.55;;;;;;;;;;4916270;29;20028;-63
2021/10/01 05:42:38;;;;;;;62.60;29.88;;;;;;;;;;4916121;29;20021;-64
2021/10/01 05:45:07;;;;;;;66.03;33.28;;;;;;;;;;4916084;29;20040;-68
2021/10/01 05:47:34;;;;;;;60.88;31.08;;;;;;;;;;4916101;29;20024;-66
2021/10/01 05:50:04;;;;;;;57.47;29.73;;;;;;;;;;4916026;29;20031;-63
2021/10/01 05:54:57;;;;;;;60.13;29.98;;;;;;;;;;4915853;29;20028;-65
2021/10/01 05:57:23;;;;;;;66.60;32.00;;;;;;;;;;4916053;29;20024;-65
2021/10/01 05:59:49;;;;;;;67.22;31.40;;;;;;;;;;4916110;29;20047;-62
2021/10/01 06:02:16;;;;;;;53.97;28.08;;;;;;;;;;4915725;29;20043;-64
2021/10/01 06:04:43;;;;;;;53.42;28.35;;;;;;;;;;4915805;29;20144;-63
2021/10/01 06:07:09;;;;;;;55.20;27.98;;;;;;;;;;4915627;29;20027;-64
2021/10/01 06:09:35;;;;;;;53.47;29.08;;;;;;;;;;4915779;29;20032;-63
2021/10/01 06:12:01;;;;;;;56.55;29.13;;;;;;;;;;4915840;29;20027;-63
2021/10/01 06:14:27;;;;;;;57.78;29.75;;;;;;;;;;4916220;29;20032;-70
2021/10/01 06:16:54;;;;;;;58.10;29.42;;;;;;;;;;4914354;29;20480;-65
2021/10/01 06:19:21;;;;;;;61.00;29.45;;;;;;;;;;4914489;29;20099;-65
2021/10/01 06:21:47;;;;;;;62.65;29.65;;;;;;;;;;4914472;29;20799;-64
2021/10/01 06:24:13;;;;;;;73.70;32.90;;;;;;;;;;4914318;29;20032;-64
2021/10/01 06:26:39;;;;;;;63.22;30.00;;;;;;;;;;4914285;29;20024;-69
2021/10/01 06:29:05;;;;;;;87.40;36.58;;;;;;;;;;4915868;29;20059;-65
2021/10/01 06:31:32;;;;;;;58.67;29.42;;;;;;;;;;4915452;29;20024;-63
2021/10/01 06:33:58;;;;;;;56.08;29.42;;;;;;;;;;4915447;29;20079;-66
2021/10/01 06:36:24;;;;;;;53.58;28.30;;;;;;;;;;4915186;29;20024;-70
2021/10/01 06:38:51;;;;;;;60.45;27.30;;;;;;;;;;4914720;29;20099;-63
2021/10/01 06:41:17;;;;;;;57.42;28.70;;;;;;;;;;4914630;29;20072;-65
2021/10/01 06:43:44;;;;;;;53.03;27.30;;;;;;;;;;4915241;29;20075;-63
2021/10/01 06:46:47;;;;;;;55.28;27.35;;;;;;;;;;4915179;29;20503;-63
2021/10/01 07:22:29;;;;;;;35.15;17.40;;;;;;;;;;4874627;29;20097;-64
2021/10/01 08:19:25;;;;;;;24.30;12.57;;;;;;;;;;4914444;29;20044;-64
2021/10/01 08:21:52;;;;;;;26.35;13.18;;;;;;;;;;4914178;29;20035;-62
2021/10/01 08:24:18;;;;;;;26.42;13.63;;;;;;;;;;4913738;29;20176;-62
2021/10/01 08:26:45;;;;;;;27.85;13.98;;;;;;;;;;4913513;29;20049;-63
2021/10/01 08:29:11;;;;;;;26.85;13.70;;;;;;;;;;4913886;29;20024;-65
2021/10/01 08:31:37;;;;;;;21.92;13.25;;;;;;;;;;4914991;29;20027;-65
2021/10/01 08:34:04;;;;;;;23.88;13.55;;;;;;;;;;4917211;29;20464;-65
2021/10/01 08:36:30;;;;;;;24.63;12.23;;;;;;;;;;4917552;29;20069;-67
2021/10/01 08:38:56;;;;;;;25.50;13.25;;;;;;;;;;4916281;29;20067;-62
2021/10/01 08:41:22;;;;;;;22.05;11.88;;;;;;;;;;4916441;29;20119;-66
2021/10/01 08:43:49;;;;;;;27.58;13.05;;;;;;;;;;4916777;29;20036;-63
2021/10/01 08:46:15;;;;;;;20.65;11.73;;;;;;;;;;4917292;29;20056;-62
2021/10/01 08:48:42;;;;;;;28.75;12.35;;;;;;;;;;4917226;29;20063;-64
2021/10/01 08:51:09;;;;;;;23.58;11.38;;;;;;;;;;4917251;29;20028;-62
2021/10/01 08:53:35;;;;;;;20.67;10.15;;;;;;;;;;4917114;29;20028;-63
2021/10/01 08:56:03;;;;;;;24.75;10.25;;;;;;;;;;4916873;29;20040;-61
2021/10/01 08:58:29;;;;;;;20.20;10.50;;;;;;;;;;4916792;29;20092;-67
2021/10/01 09:00:59;;;;;;;18.00;9.70;;;;;;;;;;4916948;29;20036;-61
2021/10/01 09:03:25;;;;;;;19.98;10.15;;;;;;;;;;4916807;29;20040;-61
2021/10/01 09:05:51;;;;;;;18.80;9.27;;;;;;;;;;4916759;29;20033;-61
2021/10/01 09:08:19;;;;;;;17.17;9.55;;;;;;;;;;4916829;29;20040;-61
2021/10/01 09:11:01;;;;;;;20.73;9.73;;;;;;;;;;4916923;29;20025;-62
2021/10/01 09:13:27;;;;;;;19.27;10.52;;;;;;;;;;4916917;29;20028;-63
2021/10/01 09:16:10;;;;;;;23.48;9.55;;;;;;;;;;4916452;29;20036;-65
2021/10/01 09:18:37;;;;;;;19.95;9.40;;;;;;;;;;4916406;29;20024;-63
2021/10/01 09:21:03;;;;;;;18.10;9.13;;;;;;;;;;4916646;29;20477;-61
2021/10/01 09:23:31;;;;;;;22.73;10.65;;;;;;;;;;4916659;29;20495;-68
2021/10/01 09:26:16;;;;;;;19.88;9.30;;;;;;;;;;4916297;29;20099;-63
2021/10/01 09:28:45;;;;;;;23.88;9.35;;;;;;;;;;4916653;29;20052;-65
2021/10/01 09:31:28;;;;;;;17.80;8.73;;;;;;;;;;4916489;29;20484;-66
2021/10/01 09:33:54;;;;;;;17.60;8.43;;;;;;;;;;4916209;29;20028;-65
2021/10/01 09:36:21;;;;;;;19.67;9.25;;;;;;;;;;4916312;29;20536;-63
2021/10/01 09:38:47;;;;;;;15.90;8.40;;;;;;;;;;4915965;29;20409;-67
2021/10/01 09:41:17;;;;;;;18.23;8.75;;;;;;;;;;4916306;29;20522;-63
2021/10/01 09:43:43;;;;;;;19.60;8.25;;;;;;;;;;4915745;29;20091;-67
2021/10/01 09:46:13;;;;;;;15.55;8.13;;;;;;;;;;4915591;29;20032;-61
2021/10/01 09:48:40;;;;;;;17.67;8.40;;;;;;;;;;4915924;29;20449;-61
2021/10/01 09:51:11;;;;;;;17.08;8.80;;;;;;;;;;4916080;29;20492;-61
2021/10/01 09:53:47;;;;;;;18.45;9.02;;;;;;;;;;4916090;29;20040;-62
2021/10/01 09:56:22;;;;;;;18.65;8.93;;;;;;;;;;4915453;29;20472;-61
2021/10/01 09:59:07;;;;;;;25.60;9.77;;;;;;;;;;4915759;29;20032;-61
2021/10/01 10:01:33;;;;;;;19.90;9.23;;;;;;;;;;4915925;29;20036;-61
2021/10/01 10:04:12;;;;;;;17.10;9.10;;;;;;;;;;4915814;29;20040;-62
2021/10/01 10:06:42;;;;;;;19.23;8.20;;;;;;;;;;4915870;29;20472;-62
2021/10/01 10:09:08;;;;;;;21.33;7.88;;;;;;;;;;4915554;29;20452;-61
2021/10/01 10:11:39;;;;;;;19.38;8.00;;;;;;;;;;4915430;29;20031;-63
2021/10/01 10:14:08;;;;;;;15.85;7.68;;;;;;;;;;4915820;29;20032;-63
2021/10/01 10:16:34;;;;;;;17.73;7.78;;;;;;;;;;4915697;29;20116;-61
2021/10/01 10:19:04;;;;;;;17.98;8.30;;;;;;;;;;4915411;29;20024;-62
2021/10/01 10:21:31;;;;;;;16.70;8.00;;;;;;;;;;4915633;29;20074;-61
2021/10/01 10:23:57;;;;;;;19.55;8.40;;;;;;;;;;4915349;29;20044;-62
2021/10/01 10:26:24;;;;;;;18.48;8.73;;;;;;;;;;4915072;29;20484;-61
2021/10/01 10:28:53;;;;;;;18.83;8.60;;;;;;;;;;4915340;29;20476;-62
2021/10/01 10:31:19;;;;;;;15.43;8.38;;;;;;;;;;4915781;29;20045;-61
2021/10/01 10:33:49;;;;;;;19.13;8.80;;;;;;;;;;4915398;29;20397;-63
2021/10/01 10:36:27;;;;;;;16.95;8.77;;;;;;;;;;4915417;29;20040;-61
2021/10/01 10:38:57;;;;;;;18.98;8.40;;;;;;;;;;4914565;29;20139;-63
2021/10/01 10:41:24;;;;;;;17.35;8.88;;;;;;;;;;4914333;29;20111;-62
2021/10/01 10:43:50;;;;;;;18.25;8.65;;;;;;;;;;4913558;29;20058;-62
2021/10/01 10:46:35;;;;;;;18.98;8.32;;;;;;;;;;4914160;29;20030;-61
2021/10/01 10:49:16;;;;;;;16.50;8.23;;;;;;;;;;4915202;29;20070;-63
2021/10/01 10:51:55;;;;;;;23.33;8.77;;;;;;;;;;4913536;29;20392;-61
2021/10/01 10:54:21;;;;;;;18.08;8.80;;;;;;;;;;4914054;29;20270;-62
2021/10/01 10:57:07;;;;;;;15.25;8.07;;;;;;;;;;4914924;29;20065;-61
2021/10/01 10:59:33;;;;;;;16.08;8.27;;;;;;;;;;4914997;29;20083;-62
2021/10/01 11:02:18;;;;;;;14.70;7.82;;;;;;;;;;4914967;29;20396;-64
2021/10/01 11:04:48;;;;;;;18.27;7.85;;;;;;;;;;4914795;29;20444;-62
2021/10/01 11:07:34;;;;;;;19.65;7.93;;;;;;;;;;4914814;29;20441;-62
2021/10/01 11:10:18;;;;;;;15.30;7.35;;;;;;;;;;4914522;29;20039;-62
2021/10/01 11:12:44;;;;;;;21.23;7.95;;;;;;;;;;4914850;29;20123;-61
2021/10/01 11:15:14;;;;;;;20.05;7.88;;;;;;;;;;4915094;29;20021;-61
2021/10/01 11:17:40;;;;;;;21.55;8.25;;;;;;;;;;4914615;29;20111;-61
2021/10/01 11:20:06;;;;;;;15.18;8.07;;;;;;;;;;4914754;29;20461;-61
2021/10/01 11:22:37;;;;;;;17.48;7.68;;;;;;;;;;4913159;29;20084;-60
2021/10/01 11:25:03;;;;;;;17.77;7.95;;;;;;;;;;4914587;29;20095;-62
2021/10/01 11:27:29;;;;;;;19.35;8.30;;;;;;;;;;4914302;29;20481;-63
2021/10/01 11:29:55;;;;;;;16.42;8.05;;;;;;;;;;4914917;29;20075;-62
2021/10/01 11:32:22;;;;;;;21.63;7.50;;;;;;;;;;4914711;29;20032;-62
2021/10/01 11:34:53;;;;;;;16.38;7.35;;;;;;;;;;4914653;29;20492;-64
2021/10/01 11:37:32;;;;;;;13.65;6.88;;;;;;;;;;4914287;29;20067;-62
2021/10/01 11:40:04;;;;;;;14.73;7.45;;;;;;;;;;4913841;29;20139;-62
2021/10/01 11:42:31;;;;;;;11.88;6.85;;;;;;;;;;4914147;29;20036;-61
2021/10/01 11:44:58;;;;;;;13.00;6.30;;;;;;;;;;4913942;29;20040;-62
2021/10/01 11:47:24;;;;;;;14.00;6.55;;;;;;;;;;4914345;29;20020;-62
2021/10/01 11:49:52;;;;;;;14.40;6.43;;;;;;;;;;4914743;29;20499;-62
2021/10/01 11:52:18;;;;;;;18.63;6.97;;;;;;;;;;4913968;29;20033;-66
2021/10/01 11:54:50;;;;;;;15.85;6.60;;;;;;;;;;4914137;29;20028;-62
2021/10/01 11:57:16;;;;;;;16.88;6.10;;;;;;;;;;4914134;29;20099;-66
2021/10/01 12:00:04;;;;;;;14.38;6.00;;;;;;;;;;4914327;29;20028;-65
2021/10/01 12:02:37;;;;;;;12.50;5.97;;;;;;;;;;4914409;29;20020;-64
2021/10/01 12:05:22;;;;;;;13.30;5.50;;;;;;;;;;4914674;29;20047;-63
2021/10/01 12:07:50;;;;;;;11.32;6.18;;;;;;;;;;4918040;29;20036;-62
2021/10/01 12:10:17;;;;;;;12.82;6.32;;;;;;;;;;4917982;29;20024;-62
2021/10/01 12:13:01;;;;;;;9.30;5.88;;;;;;;;;;4917699;29;20091;-63
2021/10/01 12:15:59;;;;;;;11.40;6.10;;;;;;;;;;4917959;29;20111;-61
2021/10/01 12:18:44;;;;;;;15.90;7.35;;;;;;;;;;4906458;29;20119;-63
2021/10/01 12:21:10;;;;;;;15.45;6.88;;;;;;;;;;4917586;29;20076;-64
2021/10/01 12:23:40;;;;;;;13.20;6.32;;;;;;;;;;4917639;29;20039;-62
2021/10/01 12:26:25;;;;;;;11.18;5.78;;;;;;;;;;4917866;29;20036;-64
2021/10/01 12:29:01;;;;;;;13.32;5.80;;;;;;;;;;4917132;29;20040;-62
2021/10/01 12:31:33;;;;;;;12.90;5.53;;;;;;;;;;4917377;29;20087;-63
2021/10/01 12:34:01;;;;;;;12.05;5.90;;;;;;;;;;4917541;29;20059;-62
2021/10/01 12:36:28;;;;;;;14.27;6.25;;;;;;;;;;4917317;29;20060;-61
2021/10/01 12:38:56;;;;;;;13.43;5.80;;;;;;;;;;4917211;29;20471;-65
2021/10/01 12:41:22;;;;;;;10.10;5.97;;;;;;;;;;4917397;29;20040;-62
2021/10/01 12:43:53;;;;;;;12.27;5.75;;;;;;;;;;4917162;29;20028;-62
2021/10/01 12:46:36;;;;;;;15.10;6.28;;;;;;;;;;4917227;29;20036;-62
2021/10/01 12:49:21;;;;;;;10.23;5.72;;;;;;;;;;4916993;29;20020;-61
2021/10/01 12:52:01;;;;;;;12.85;6.28;;;;;;;;;;4917249;29;20028;-61
2021/10/01 12:54:37;;;;;;;15.90;7.22;;;;;;;;;;4917101;29;20123;-61
2021/10/01 12:57:10;;;;;;;13.77;7.13;;;;;;;;;;4916823;29;20032;-61
2021/10/01 12:59:37;;;;;;;11.15;6.00;;;;;;;;;;4916907;29;20029;-61
2021/10/01 13:02:07;;;;;;;11.95;6.70;;;;;;;;;;4917172;29;20083;-62
2021/10/01 13:04:44;;;;;;;9.98;5.53;;;;;;;;;;4916807;29;20381;-67
2021/10/01 13:07:23;;;;;;;11.15;5.60;;;;;;;;;;4915831;29;20429;-66
2021/10/01 13:09:49;;;;;;;11.35;5.75;;;;;;;;;;4916100;29;20048;-66
2021/10/01 13:12:35;;;;;;;10.18;5.55;;;;;;;;;;4916490;29;20062;-66
2021/10/01 13:15:10;;;;;;;10.43;5.60;;;;;;;;;;4916546;29;20032;-67
2021/10/01 13:17:36;;;;;;;17.85;6.18;;;;;;;;;;4915622;29;20225;-65
2021/10/01 13:20:03;;;;;;;13.77;5.72;;;;;;;;;;4916675;29;20024;-66
2021/10/01 13:22:48;;;;;;;11.38;6.05;;;;;;;;;;4916450;29;20439;-69
2021/10/01 13:25:21;;;;;;;12.18;5.68;;;;;;;;;;4916044;29;20040;-68
2021/10/01 13:27:51;;;;;;;17.83;6.82;;;;;;;;;;4916533;29;20024;-64
2021/10/01 13:30:17;;;;;;;18.13;6.00;;;;;;;;;;4916375;29;20057;-66
2021/10/01 13:32:44;;;;;;;10.10;6.20;;;;;;;;;;4915718;29;20404;-67
2021/10/01 13:35:11;;;;;;;13.57;6.10;;;;;;;;;;4916313;29;20068;-65
2021/10/01 13:37:37;;;;;;;12.65;6.00;;;;;;;;;;4915656;29;20020;-65
2021/10/01 13:40:04;;;;;;;11.85;5.90;;;;;;;;;;4916116;29;20492;-66
2021/10/01 13:42:30;;;;;;;16.15;7.32;;;;;;;;;;4915941;29;20040;-65
2021/10/01 13:44:56;;;;;;;13.32;6.13;;;;;;;;;;4916016;29;20067;-65
2021/10/01 13:47:22;;;;;;;11.85;6.22;;;;;;;;;;4915800;29;20136;-62
2021/10/01 13:49:48;;;;;;;10.73;6.15;;;;;;;;;;4915873;29;20053;-66
2021/10/01 13:52:15;;;;;;;13.57;6.68;;;;;;;;;;4915651;29;20107;-65
2021/10/01 13:54:41;;;;;;;17.67;6.53;;;;;;;;;;4916137;29;20048;-61
2021/10/01 13:57:08;;;;;;;14.73;6.30;;;;;;;;;;4915862;29;20036;-62
2021/10/01 13:59:34;;;;;;;12.40;5.35;;;;;;;;;;4915843;29;20028;-61
2021/10/01 14:02:00;;;;;;;13.23;5.55;;;;;;;;;;4915906;29;20024;-61
2021/10/01 14:04:27;;;;;;;8.65;5.32;;;;;;;;;;4915434;29;20123;-64
2021/10/01 14:06:53;;;;;;;10.63;5.53;;;;;;;;;;4915719;29;20496;-63
2021/10/01 14:09:19;;;;;;;9.45;5.35;;;;;;;;;;4915551;29;20075;-61
2021/10/01 14:11:45;;;;;;;12.65;5.35;;;;;;;;;;4915573;29;20036;-61
2021/10/01 14:14:11;;;;;;;12.27;5.78;;;;;;;;;;4915703;29;20400;-62
2021/10/01 14:16:37;;;;;;;14.38;5.43;;;;;;;;;;4915467;29;20032;-62
2021/10/01 14:19:04;;;;;;;10.73;5.90;;;;;;;;;;4916058;29;20024;-62
2021/10/01 14:21:30;;;;;;;11.35;5.78;;;;;;;;;;4915840;29;20480;-61
2021/10/01 14:23:56;;;;;;;11.10;4.78;;;;;;;;;;4915461;29;20122;-62
2021/10/01 14:26:23;;;;;;;11.90;5.13;;;;;;;;;;4915506;29;20029;-62
2021/10/01 14:28:49;;;;;;;11.57;5.15;;;;;;;;;;4915404;29;20046;-64
2021/10/01 14:31:15;;;;;;;10.20;5.00;;;;;;;;;;4915251;29;20075;-62
2021/10/01 14:33:41;;;;;;;10.07;5.00;;;;;;;;;;4915140;29;20087;-62
2021/10/01 14:36:07;;;;;;;12.55;6.20;;;;;;;;;;4914995;29;20028;-64
2021/10/01 14:38:33;;;;;;;13.20;5.03;;;;;;;;;;4914908;29;20044;-62
2021/10/01 14:40:59;;;;;;;12.07;5.47;;;;;;;;;;4914694;29;20040;-62
2021/10/01 14:43:26;;;;;;;9.07;5.28;;;;;;;;;;4915130;29;20087;-62
2021/10/01 14:45:52;;;;;;;13.13;5.55;;;;;;;;;;4915219;29;20036;-62
2021/10/01 14:48:18;;;;;;;12.50;5.50;;;;;;;;;;4913597;29;20432;-62
2021/10/01 14:50:44;;;;;;;8.48;4.90;;;;;;;;;;4914918;29;20024;-63
2021/10/01 14:53:10;;;;;;;11.05;5.68;;;;;;;;;;4914840;29;20047;-62
2021/10/01 14:55:37;;;;;;;14.95;5.28;;;;;;;;;;4914691;29;20039;-63
2021/10/01 14:58:03;;;;;;;11.38;5.30;;;;;;;;;;4914513;29;20028;-61
2021/10/01 15:00:29;;;;;;;9.63;5.30;;;;;;;;;;4914692;29;20102;-62
2021/10/01 15:02:56;;;;;;;9.20;5.25;;;;;;;;;;4915208;29;20035;-63
2021/10/01 15:05:23;;;;;;;11.48;5.32;;;;;;;;;;4914348;29;20036;-63
2021/10/01 15:07:50;;;;;;;12.10;5.05;;;;;;;;;;4914745;29;20091;-62
2021/10/01 15:10:16;;;;;;;12.80;5.50;;;;;;;;;;4914475;29;20087;-62
2021/10/01 15:12:42;;;;;;;12.02;5.45;;;;;;;;;;4914949;29;20016;-62
2021/10/01 15:15:09;;;;;;;15.15;5.15;;;;;;;;;;4913434;29;20024;-62
2021/10/01 15:17:38;;;;;;;10.65;5.40;;;;;;;;;;4914643;29;20489;-63
2021/10/01 15:20:05;;;;;;;12.63;5.85;;;;;;;;;;4914829;29;20496;-62
2021/10/01 15:22:31;;;;;;;9.85;5.60;;;;;;;;;;4914796;29;20477;-67
2021/10/01 15:24:57;;;;;;;10.43;5.30;;;;;;;;;;4914526;29;20040;-63
2021/10/01 15:27:23;;;;;;;10.65;5.68;;;;;;;;;;4914712;29;20028;-61
2021/10/01 15:29:59;;;;;;;12.98;5.68;;;;;;;;;;4914776;29;20662;-61
2021/10/01 15:32:25;;;;;;;10.60;5.90;;;;;;;;;;4914726;29;20035;-62
2021/10/01 15:34:51;;;;;;;10.82;5.10;;;;;;;;;;4914318;29;20396;-62
2021/10/01 15:37:17;;;;;;;11.63;5.32;;;;;;;;;;4914420;29;20040;-62
2021/10/01 15:39:43;;;;;;;13.38;6.10;;;;;;;;;;4914009;29;20048;-62
2021/10/01 15:42:09;;;;;;;11.85;5.95;;;;;;;;;;4917641;29;20040;-61
2021/10/01 15:44:36;;;;;;;8.15;5.43;;;;;;;;;;4918163;29;20553;-62
2021/10/01 15:47:03;;;;;;;10.38;6.07;;;;;;;;;;4918247;29;20024;-63
2021/10/01 15:49:29;;;;;;;12.23;5.47;;;;;;;;;;4917725;29;20039;-63
2021/10/01 15:51:55;;;;;;;10.95;5.30;;;;;;;;;;4918345;29;20432;-62
2021/10/01 15:54:21;;;;;;;12.45;5.85;;;;;;;;;;4918075;29;20039;-61
2021/10/01 15:56:47;;;;;;;12.05;5.43;;;;;;;;;;4918072;29;20032;-61
2021/10/01 15:59:13;;;;;;;14.48;6.18;;;;;;;;;;4917743;29;20078;-61
2021/10/01 16:01:39;;;;;;;12.00;5.45;;;;;;;;;;4917846;29;20028;-61